sensor_id;sensor_type;location;lat;lon;timestamp;temperature;humidity
21459;DHT22;10891;49.350;19.386;2023-04-03T00:00:44;1.60;99.90
21459;DHT22;10891;49.350;19.386;2023-04-03T00:03:10;1.60;99.90
21459;DHT22;10891;49.350;19.386;2023-04-03T00:05:37;1.60;99.90
21459;DHT22;10891;49.350;19.386;2023-04-03T00:08:04;1.60;99.90
21459;DHT22;10891;49.350;19.386;2023-04-03T00:10:33;1.60;99.90
21459;DHT22;10891;49.350;19.386;2023-04-03T00:13:00;1.70;99.90
21459;DHT22;10891;49.350;19.386;2023-04-03T00:15:28;1.70;99.90
21459;DHT22;10891;49.350;19.386;2023-04-03T00:17:56;1.80;99.90
21459;DHT22;10891;49.350;19.386;2023-04-03T00:20:23;1.70;99.90
21459;DHT22;10891;49.350;19.386;2023-04-03T00:22:50;1.70;99.90
21459;DHT22;10891;49.350;19.386;2023-04-03T00:25:17;1.70;99.90
21459;DHT22;10891;49.350;19.386;2023-04-03T00:27:44;1.50;99.90
21459;DHT22;10891;49.350;19.386;2023-04-03T00:30:14;1.50;99.90
21459;DHT22;10891;49.350;19.386;2023-04-03T00:32:41;1.40;99.90
21459;DHT22;10891;49.350;19.386;2023-04-03T00:35:10;1.40;99.90
21459;DHT22;10891;49.350;19.386;2023-04-03T00:37:37;1.30;99.90
21459;DHT22;10891;49.350;19.386;2023-04-03T00:40:05;1.30;99.90
21459;DHT22;10891;49.350;19.386;2023-04-03T00:42:32;1.30;99.90
21459;DHT22;10891;49.350;19.386;2023-04-03T00:45:29;1.40;99.90
21459;DHT22;10891;49.350;19.386;2023-04-03T00:47:56;1.50;99.90
21459;DHT22;10891;49.350;19.386;2023-04-03T00:50:27;1.50;99.90
21459;DHT22;10891;49.350;19.386;2023-04-03T00:52:55;1.50;99.90
21459;DHT22;10891;49.350;19.386;2023-04-03T00:55:23;1.50;99.90
21459;DHT22;10891;49.350;19.386;2023-04-03T00:57:51;1.40;99.90
21459;DHT22;10891;49.350;19.386;2023-04-03T01:00:20;1.40;99.90
21459;DHT22;10891;49.350;19.386;2023-04-03T01:02:48;1.40;99.90
21459;DHT22;10891;49.350;19.386;2023-04-03T01:05:16;1.60;99.90
21459;DHT22;10891;49.350;19.386;2023-04-03T01:07:45;1.60;99.90
21459;DHT22;10891;49.350;19.386;2023-04-03T01:10:15;1.30;99.90
21459;DHT22;10891;49.350;19.386;2023-04-03T01:12:46;1.10;99.90
21459;DHT22;10891;49.350;19.386;2023-04-03T01:15:17;1.00;99.90
21459;DHT22;10891;49.350;19.386;2023-04-03T01:17:47;1.00;99.90
21459;DHT22;10891;49.350;19.386;2023-04-03T01:23:30;1.00;99.90
21459;DHT22;10891;49.350;19.386;2023-04-03T01:25:59;1.00;99.90
21459;DHT22;10891;49.350;19.386;2023-04-03T01:28:28;1.10;99.90
21459;DHT22;10891;49.350;19.386;2023-04-03T01:31:00;1.20;99.90
21459;DHT22;10891;49.350;19.386;2023-04-03T01:33:31;1.30;99.90
21459;DHT22;10891;49.350;19.386;2023-04-03T01:35:58;1.50;99.90
21459;DHT22;10891;49.350;19.386;2023-04-03T01:38:25;1.40;99.90
21459;DHT22;10891;49.350;19.386;2023-04-03T01:40:52;1.40;99.90
21459;DHT22;10891;49.350;19.386;2023-04-03T01:43:19;1.40;99.90
21459;DHT22;10891;49.350;19.386;2023-04-03T01:45:45;1.20;99.90
21459;DHT22;10891;49.350;19.386;2023-04-03T01:48:14;1.20;99.90
21459;DHT22;10891;49.350;19.386;2023-04-03T01:50:43;1.10;99.90
21459;DHT22;10891;49.350;19.386;2023-04-03T01:53:09;1.00;99.90
21459;DHT22;10891;49.350;19.386;2023-04-03T01:55:36;1.10;99.90
21459;DHT22;10891;49.350;19.386;2023-04-03T01:58:03;1.00;99.90
21459;DHT22;10891;49.350;19.386;2023-04-03T02:00:30;0.90;99.90
21459;DHT22;10891;49.350;19.386;2023-04-03T02:02:57;0.70;99.90
21459;DHT22;10891;49.350;19.386;2023-04-03T02:05:24;0.70;99.90
21459;DHT22;10891;49.350;19.386;2023-04-03T02:07:52;0.70;99.90
21459;DHT22;10891;49.350;19.386;2023-04-03T02:10:19;0.80;99.90
21459;DHT22;10891;49.350;19.386;2023-04-03T02:12:46;0.80;99.90
21459;DHT22;10891;49.350;19.386;2023-04-03T02:15:13;0.90;99.90
21459;DHT22;10891;49.350;19.386;2023-04-03T02:17:40;0.90;99.90
21459;DHT22;10891;49.350;19.386;2023-04-03T02:20:08;0.90;99.90
21459;DHT22;10891;49.350;19.386;2023-04-03T02:22:35;0.90;99.90
21459;DHT22;10891;49.350;19.386;2023-04-03T02:25:04;0.80;99.90
21459;DHT22;10891;49.350;19.386;2023-04-03T02:27:31;0.70;99.90
21459;DHT22;10891;49.350;19.386;2023-04-03T02:30:01;0.60;99.90
21459;DHT22;10891;49.350;19.386;2023-04-03T02:32:27;0.70;99.90
21459;DHT22;10891;49.350;19.386;2023-04-03T02:34:54;0.60;99.90
21459;DHT22;10891;49.350;19.386;2023-04-03T02:37:21;0.70;99.90
21459;DHT22;10891;49.350;19.386;2023-04-03T02:39:48;0.60;99.90
21459;DHT22;10891;49.350;19.386;2023-04-03T02:42:17;0.60;99.90
21459;DHT22;10891;49.350;19.386;2023-04-03T02:44:44;0.60;99.90
21459;DHT22;10891;49.350;19.386;2023-04-03T02:47:10;0.60;99.90
21459;DHT22;10891;49.350;19.386;2023-04-03T02:49:37;0.60;99.90
21459;DHT22;10891;49.350;19.386;2023-04-03T02:52:04;0.60;99.90
21459;DHT22;10891;49.350;19.386;2023-04-03T02:54:31;0.60;99.90
21459;DHT22;10891;49.350;19.386;2023-04-03T02:56:59;0.60;99.90
21459;DHT22;10891;49.350;19.386;2023-04-03T02:59:27;0.70;99.90
21459;DHT22;10891;49.350;19.386;2023-04-03T03:01:54;0.70;99.90
21459;DHT22;10891;49.350;19.386;2023-04-03T03:04:22;0.70;99.90
21459;DHT22;10891;49.350;19.386;2023-04-03T03:06:48;0.70;99.90
21459;DHT22;10891;49.350;19.386;2023-04-03T03:09:16;0.80;99.90
21459;DHT22;10891;49.350;19.386;2023-04-03T03:11:43;0.70;99.90
21459;DHT22;10891;49.350;19.386;2023-04-03T03:14:10;0.70;99.90
21459;DHT22;10891;49.350;19.386;2023-04-03T03:16:38;0.70;99.90
21459;DHT22;10891;49.350;19.386;2023-04-03T03:19:05;0.60;99.90
21459;DHT22;10891;49.350;19.386;2023-04-03T03:21:32;0.60;99.90
21459;DHT22;10891;49.350;19.386;2023-04-03T03:23:59;0.60;99.90
21459;DHT22;10891;49.350;19.386;2023-04-03T03:26:27;0.50;99.90
21459;DHT22;10891;49.350;19.386;2023-04-03T03:28:54;0.50;99.90
21459;DHT22;10891;49.350;19.386;2023-04-03T03:31:21;0.40;99.90
21459;DHT22;10891;49.350;19.386;2023-04-03T03:33:49;0.50;99.90
21459;DHT22;10891;49.350;19.386;2023-04-03T03:36:16;0.50;99.90
21459;DHT22;10891;49.350;19.386;2023-04-03T03:38:43;0.40;99.90
21459;DHT22;10891;49.350;19.386;2023-04-03T03:41:10;0.40;99.90
21459;DHT22;10891;49.350;19.386;2023-04-03T03:43:37;0.40;99.90
21459;DHT22;10891;49.350;19.386;2023-04-03T03:46:03;0.40;99.90
21459;DHT22;10891;49.350;19.386;2023-04-03T03:48:30;0.40;99.90
21459;DHT22;10891;49.350;19.386;2023-04-03T03:50:59;0.40;99.90
21459;DHT22;10891;49.350;19.386;2023-04-03T03:53:26;0.40;99.90
21459;DHT22;10891;49.350;19.386;2023-04-03T03:55:52;0.40;99.90
21459;DHT22;10891;49.350;19.386;2023-04-03T03:58:20;0.30;99.90
21459;DHT22;10891;49.350;19.386;2023-04-03T04:00:47;0.30;99.90
21459;DHT22;10891;49.350;19.386;2023-04-03T04:03:14;0.20;99.90
21459;DHT22;10891;49.350;19.386;2023-04-03T04:05:41;0.20;99.90
21459;DHT22;10891;49.350;19.386;2023-04-03T04:08:09;0.00;99.90
21459;DHT22;10891;49.350;19.386;2023-04-03T04:10:37;0.00;99.90
21459;DHT22;10891;49.350;19.386;2023-04-03T04:13:04;-0.10;99.90
21459;DHT22;10891;49.350;19.386;2023-04-03T04:15:31;-0.10;99.90
21459;DHT22;10891;49.350;19.386;2023-04-03T04:17:58;-0.20;99.90
21459;DHT22;10891;49.350;19.386;2023-04-03T04:20:25;-0.30;99.90
21459;DHT22;10891;49.350;19.386;2023-04-03T04:22:51;-0.20;99.90
21459;DHT22;10891;49.350;19.386;2023-04-03T04:25:20;-0.20;99.90
21459;DHT22;10891;49.350;19.386;2023-04-03T04:27:47;-0.10;99.90
21459;DHT22;10891;49.350;19.386;2023-04-03T04:30:14;-0.10;99.90
21459;DHT22;10891;49.350;19.386;2023-04-03T04:32:40;-0.10;99.90
21459;DHT22;10891;49.350;19.386;2023-04-03T04:35:08;0.00;99.90
21459;DHT22;10891;49.350;19.386;2023-04-03T04:37:35;0.10;99.90
21459;DHT22;10891;49.350;19.386;2023-04-03T04:40:02;0.10;99.90
21459;DHT22;10891;49.350;19.386;2023-04-03T04:42:30;0.30;99.90
21459;DHT22;10891;49.350;19.386;2023-04-03T04:44:57;0.30;99.90
21459;DHT22;10891;49.350;19.386;2023-04-03T04:47:24;0.30;99.90
21459;DHT22;10891;49.350;19.386;2023-04-03T04:49:51;0.30;99.90
21459;DHT22;10891;49.350;19.386;2023-04-03T04:52:18;0.30;99.90
21459;DHT22;10891;49.350;19.386;2023-04-03T04:54:45;0.40;99.90
21459;DHT22;10891;49.350;19.386;2023-04-03T04:57:12;0.30;99.90
21459;DHT22;10891;49.350;19.386;2023-04-03T04:59:41;0.30;99.90
21459;DHT22;10891;49.350;19.386;2023-04-03T05:02:08;0.30;99.90
21459;DHT22;10891;49.350;19.386;2023-04-03T05:04:35;0.40;99.90
21459;DHT22;10891;49.350;19.386;2023-04-03T05:07:02;0.50;99.90
21459;DHT22;10891;49.350;19.386;2023-04-03T05:09:28;0.50;99.90
21459;DHT22;10891;49.350;19.386;2023-04-03T05:11:55;0.30;99.90
21459;DHT22;10891;49.350;19.386;2023-04-03T05:14:22;0.30;99.90
21459;DHT22;10891;49.350;19.386;2023-04-03T05:16:51;0.30;99.90
21459;DHT22;10891;49.350;19.386;2023-04-03T05:19:19;0.30;99.90
21459;DHT22;10891;49.350;19.386;2023-04-03T05:21:47;0.30;99.90
21459;DHT22;10891;49.350;19.386;2023-04-03T05:24:14;0.40;99.90
21459;DHT22;10891;49.350;19.386;2023-04-03T05:26:41;0.40;99.90
21459;DHT22;10891;49.350;19.386;2023-04-03T05:29:08;0.40;99.90
21459;DHT22;10891;49.350;19.386;2023-04-03T05:31:35;0.30;99.90
21459;DHT22;10891;49.350;19.386;2023-04-03T05:34:04;0.50;99.90
21459;DHT22;10891;49.350;19.386;2023-04-03T05:36:31;0.50;99.90
21459;DHT22;10891;49.350;19.386;2023-04-03T05:38:58;0.70;99.90
21459;DHT22;10891;49.350;19.386;2023-04-03T05:41:26;0.80;99.90
21459;DHT22;10891;49.350;19.386;2023-04-03T05:43:53;1.00;99.90
21459;DHT22;10891;49.350;19.386;2023-04-03T05:46:20;0.80;99.90
21459;DHT22;10891;49.350;19.386;2023-04-03T05:48:47;0.90;99.90
21459;DHT22;10891;49.350;19.386;2023-04-03T05:51:17;1.10;99.90
21459;DHT22;10891;49.350;19.386;2023-04-03T05:53:46;0.90;99.90
21459;DHT22;10891;49.350;19.386;2023-04-03T05:56:14;0.90;99.90
21459;DHT22;10891;49.350;19.386;2023-04-03T05:58:41;0.80;99.90
21459;DHT22;10891;49.350;19.386;2023-04-03T06:01:08;0.60;99.90
21459;DHT22;10891;49.350;19.386;2023-04-03T06:03:34;0.40;99.90
21459;DHT22;10891;49.350;19.386;2023-04-03T06:06:03;0.30;99.90
21459;DHT22;10891;49.350;19.386;2023-04-03T06:08:32;0.30;99.90
21459;DHT22;10891;49.350;19.386;2023-04-03T06:11:00;0.30;99.90
21459;DHT22;10891;49.350;19.386;2023-04-03T06:13:28;0.30;99.90
21459;DHT22;10891;49.350;19.386;2023-04-03T06:15:55;0.30;99.90
21459;DHT22;10891;49.350;19.386;2023-04-03T06:18:23;0.40;99.90
21459;DHT22;10891;49.350;19.386;2023-04-03T06:20:50;0.40;99.90
21459;DHT22;10891;49.350;19.386;2023-04-03T06:23:17;0.40;99.90
21459;DHT22;10891;49.350;19.386;2023-04-03T06:25:45;0.50;99.90
21459;DHT22;10891;49.350;19.386;2023-04-03T06:28:12;0.50;99.90
21459;DHT22;10891;49.350;19.386;2023-04-03T06:30:39;0.60;99.90
21459;DHT22;10891;49.350;19.386;2023-04-03T06:33:06;0.60;99.90
21459;DHT22;10891;49.350;19.386;2023-04-03T06:35:33;0.40;99.90
21459;DHT22;10891;49.350;19.386;2023-04-03T06:38:01;0.40;99.90
21459;DHT22;10891;49.350;19.386;2023-04-03T06:40:29;0.50;99.90
21459;DHT22;10891;49.350;19.386;2023-04-03T06:42:58;0.60;99.90
21459;DHT22;10891;49.350;19.386;2023-04-03T06:45:25;0.80;99.90
21459;DHT22;10891;49.350;19.386;2023-04-03T06:47:53;0.60;99.90
21459;DHT22;10891;49.350;19.386;2023-04-03T06:50:20;0.60;99.90
21459;DHT22;10891;49.350;19.386;2023-04-03T06:52:47;0.50;99.90
21459;DHT22;10891;49.350;19.386;2023-04-03T06:55:14;0.60;99.90
21459;DHT22;10891;49.350;19.386;2023-04-03T06:57:41;0.50;99.90
21459;DHT22;10891;49.350;19.386;2023-04-03T07:00:11;0.70;99.90
21459;DHT22;10891;49.350;19.386;2023-04-03T07:02:38;0.80;99.90
21459;DHT22;10891;49.350;19.386;2023-04-03T07:05:06;1.20;99.90
21459;DHT22;10891;49.350;19.386;2023-04-03T07:07:34;1.40;99.90
21459;DHT22;10891;49.350;19.386;2023-04-03T07:10:03;1.40;99.90
21459;DHT22;10891;49.350;19.386;2023-04-03T07:12:30;1.70;99.90
21459;DHT22;10891;49.350;19.386;2023-04-03T07:14:57;1.70;99.90
21459;DHT22;10891;49.350;19.386;2023-04-03T07:17:26;1.80;99.90
21459;DHT22;10891;49.350;19.386;2023-04-03T07:19:53;1.70;99.90
21459;DHT22;10891;49.350;19.386;2023-04-03T07:22:20;1.40;99.90
21459;DHT22;10891;49.350;19.386;2023-04-03T07:24:47;1.30;99.90
21459;DHT22;10891;49.350;19.386;2023-04-03T07:27:14;1.20;99.90
21459;DHT22;10891;49.350;19.386;2023-04-03T07:29:40;1.20;99.90
21459;DHT22;10891;49.350;19.386;2023-04-03T07:32:08;1.10;99.90
21459;DHT22;10891;49.350;19.386;2023-04-03T07:34:37;1.00;99.90
21459;DHT22;10891;49.350;19.386;2023-04-03T07:37:04;1.20;99.90
21459;DHT22;10891;49.350;19.386;2023-04-03T07:39:32;1.30;99.90
21459;DHT22;10891;49.350;19.386;2023-04-03T07:41:59;1.20;99.90
21459;DHT22;10891;49.350;19.386;2023-04-03T07:44:27;0.90;99.90
21459;DHT22;10891;49.350;19.386;2023-04-03T07:46:55;0.90;99.90
21459;DHT22;10891;49.350;19.386;2023-04-03T07:49:22;0.70;99.90
21459;DHT22;10891;49.350;19.386;2023-04-03T07:51:51;0.50;99.90
21459;DHT22;10891;49.350;19.386;2023-04-03T07:54:18;0.30;99.90
21459;DHT22;10891;49.350;19.386;2023-04-03T07:56:46;0.60;99.90
21459;DHT22;10891;49.350;19.386;2023-04-03T07:59:13;0.80;99.90
21459;DHT22;10891;49.350;19.386;2023-04-03T08:01:40;0.90;99.90
21459;DHT22;10891;49.350;19.386;2023-04-03T08:04:07;0.70;99.90
21459;DHT22;10891;49.350;19.386;2023-04-03T08:06:34;0.80;99.90
21459;DHT22;10891;49.350;19.386;2023-04-03T08:09:03;1.00;99.90
21459;DHT22;10891;49.350;19.386;2023-04-03T08:11:31;1.00;99.90
21459;DHT22;10891;49.350;19.386;2023-04-03T08:13:58;0.50;99.90
21459;DHT22;10891;49.350;19.386;2023-04-03T08:16:25;0.40;99.90
21459;DHT22;10891;49.350;19.386;2023-04-03T08:18:53;0.40;99.90
21459;DHT22;10891;49.350;19.386;2023-04-03T08:21:21;0.40;99.90
21459;DHT22;10891;49.350;19.386;2023-04-03T08:23:48;0.70;99.90
21459;DHT22;10891;49.350;19.386;2023-04-03T08:26:19;0.80;99.90
21459;DHT22;10891;49.350;19.386;2023-04-03T08:28:47;0.90;99.90
21459;DHT22;10891;49.350;19.386;2023-04-03T08:31:17;1.10;99.90
21459;DHT22;10891;49.350;19.386;2023-04-03T08:33:45;1.00;99.90
21459;DHT22;10891;49.350;19.386;2023-04-03T08:36:18;1.00;99.90
21459;DHT22;10891;49.350;19.386;2023-04-03T08:38:46;0.80;99.90
21459;DHT22;10891;49.350;19.386;2023-04-03T08:41:19;0.80;99.90
21459;DHT22;10891;49.350;19.386;2023-04-03T08:44:01;0.80;99.90
21459;DHT22;10891;49.350;19.386;2023-04-03T08:46:40;0.50;99.90
21459;DHT22;10891;49.350;19.386;2023-04-03T08:49:13;0.50;99.90
21459;DHT22;10891;49.350;19.386;2023-04-03T08:51:45;0.40;99.90
21459;DHT22;10891;49.350;19.386;2023-04-03T08:54:24;0.10;99.90
21459;DHT22;10891;49.350;19.386;2023-04-03T08:56:56;0.10;99.90
21459;DHT22;10891;49.350;19.386;2023-04-03T08:59:28;0.40;99.90
21459;DHT22;10891;49.350;19.386;2023-04-03T09:01:58;0.90;99.90
21459;DHT22;10891;49.350;19.386;2023-04-03T09:04:28;1.10;99.90
21459;DHT22;10891;49.350;19.386;2023-04-03T09:07:03;1.40;99.90
21459;DHT22;10891;49.350;19.386;2023-04-03T09:09:35;1.30;99.90
21459;DHT22;10891;49.350;19.386;2023-04-03T09:12:15;0.90;99.90
21459;DHT22;10891;49.350;19.386;2023-04-03T09:14:49;1.10;99.90
21459;DHT22;10891;49.350;19.386;2023-04-03T09:17:25;0.60;99.90
21459;DHT22;10891;49.350;19.386;2023-04-03T09:20:01;0.30;99.90
21459;DHT22;10891;49.350;19.386;2023-04-03T09:22:32;0.40;99.90
21459;DHT22;10891;49.350;19.386;2023-04-03T09:25:13;0.60;99.90
21459;DHT22;10891;49.350;19.386;2023-04-03T09:27:43;0.50;99.90
21459;DHT22;10891;49.350;19.386;2023-04-03T09:30:13;0.60;99.90
21459;DHT22;10891;49.350;19.386;2023-04-03T09:32:41;0.80;99.90
21459;DHT22;10891;49.350;19.386;2023-04-03T09:35:19;0.70;99.90
21459;DHT22;10891;49.350;19.386;2023-04-03T09:37:48;0.50;99.90
21459;DHT22;10891;49.350;19.386;2023-04-03T09:40:35;0.40;99.90
21459;DHT22;10891;49.350;19.386;2023-04-03T09:43:21;0.40;99.90
21459;DHT22;10891;49.350;19.386;2023-04-03T09:45:50;0.30;99.90
21459;DHT22;10891;49.350;19.386;2023-04-03T09:48:19;0.20;99.90
21459;DHT22;10891;49.350;19.386;2023-04-03T09:50:55;0.00;99.90
21459;DHT22;10891;49.350;19.386;2023-04-03T09:53:35;0.00;99.90
21459;DHT22;10891;49.350;19.386;2023-04-03T09:56:09;-0.10;99.90
21459;DHT22;10891;49.350;19.386;2023-04-03T09:58:48;0.10;99.90
21459;DHT22;10891;49.350;19.386;2023-04-03T10:01:27;0.50;99.90
21459;DHT22;10891;49.350;19.386;2023-04-03T10:04:09;1.00;99.90
21459;DHT22;10891;49.350;19.386;2023-04-03T10:06:39;1.50;99.90
21459;DHT22;10891;49.350;19.386;2023-04-03T10:09:19;1.60;99.90
21459;DHT22;10891;49.350;19.386;2023-04-03T10:12:01;2.00;99.90
21459;DHT22;10891;49.350;19.386;2023-04-03T10:14:32;2.40;99.90
21459;DHT22;10891;49.350;19.386;2023-04-03T10:17:10;2.70;99.90
21459;DHT22;10891;49.350;19.386;2023-04-03T10:19:41;2.60;99.90
21459;DHT22;10891;49.350;19.386;2023-04-03T10:22:18;3.00;99.90
21459;DHT22;10891;49.350;19.386;2023-04-03T10:24:56;2.20;99.90
21459;DHT22;10891;49.350;19.386;2023-04-03T10:27:42;2.00;99.90
21459;DHT22;10891;49.350;19.386;2023-04-03T10:30:22;2.20;99.90
21459;DHT22;10891;49.350;19.386;2023-04-03T10:33:01;2.70;99.90
21459;DHT22;10891;49.350;19.386;2023-04-03T10:35:43;2.80;99.90
21459;DHT22;10891;49.350;19.386;2023-04-03T10:38:16;2.10;99.90
21459;DHT22;10891;49.350;19.386;2023-04-03T10:40:52;2.40;99.90
21459;DHT22;10891;49.350;19.386;2023-04-03T10:43:28;2.60;99.90
21459;DHT22;10891;49.350;19.386;2023-04-03T10:46:02;2.80;99.90
21459;DHT22;10891;49.350;19.386;2023-04-03T10:48:47;3.30;99.90
21459;DHT22;10891;49.350;19.386;2023-04-03T10:51:24;3.70;99.90
21459;DHT22;10891;49.350;19.386;2023-04-03T10:53:58;3.40;99.90
21459;DHT22;10891;49.350;19.386;2023-04-03T10:56:31;3.20;99.90
21459;DHT22;10891;49.350;19.386;2023-04-03T10:59:07;2.80;99.90
21459;DHT22;10891;49.350;19.386;2023-04-03T11:01:39;2.60;99.90
21459;DHT22;10891;49.350;19.386;2023-04-03T11:04:09;2.80;99.90
21459;DHT22;10891;49.350;19.386;2023-04-03T11:06:40;3.00;99.90
21459;DHT22;10891;49.350;19.386;2023-04-03T11:09:18;2.90;99.90
21459;DHT22;10891;49.350;19.386;2023-04-03T11:11:47;2.80;99.90
21459;DHT22;10891;49.350;19.386;2023-04-03T11:14:26;2.70;99.90
21459;DHT22;10891;49.350;19.386;2023-04-03T11:17:10;3.40;99.90
21459;DHT22;10891;49.350;19.386;2023-04-03T11:19:44;3.10;99.90
21459;DHT22;10891;49.350;19.386;2023-04-03T11:22:19;3.80;99.90
21459;DHT22;10891;49.350;19.386;2023-04-03T11:24:55;4.00;99.90
21459;DHT22;10891;49.350;19.386;2023-04-03T11:27:25;3.40;99.90
21459;DHT22;10891;49.350;19.386;2023-04-03T11:29:57;2.80;99.90
21459;DHT22;10891;49.350;19.386;2023-04-03T11:32:42;2.50;99.90
21459;DHT22;10891;49.350;19.386;2023-04-03T11:35:16;2.50;99.90
21459;DHT22;10891;49.350;19.386;2023-04-03T11:37:46;2.50;99.90
21459;DHT22;10891;49.350;19.386;2023-04-03T11:40:25;2.30;99.90
21459;DHT22;10891;49.350;19.386;2023-04-03T11:42:55;2.40;99.90
21459;DHT22;10891;49.350;19.386;2023-04-03T11:45:38;2.60;99.90
21459;DHT22;10891;49.350;19.386;2023-04-03T11:48:49;2.80;99.90
21459;DHT22;10891;49.350;19.386;2023-04-03T11:51:39;2.40;99.90
21459;DHT22;10891;49.350;19.386;2023-04-03T11:58:02;2.00;99.90
21459;DHT22;10891;49.350;19.386;2023-04-03T12:00:50;1.70;99.90
21459;DHT22;10891;49.350;19.386;2023-04-03T12:12:40;2.40;99.90
21459;DHT22;10891;49.350;19.386;2023-04-03T12:21:17;4.60;99.90
21459;DHT22;10891;49.350;19.386;2023-04-03T12:24:03;3.90;99.90
21459;DHT22;10891;49.350;19.386;2023-04-03T12:26:38;3.10;99.90
21459;DHT22;10891;49.350;19.386;2023-04-03T12:29:17;3.70;99.90
21459;DHT22;10891;49.350;19.386;2023-04-03T12:31:55;4.30;99.90
21459;DHT22;10891;49.350;19.386;2023-04-03T12:34:44;4.30;99.90
21459;DHT22;10891;49.350;19.386;2023-04-03T12:37:23;3.90;99.90
21459;DHT22;10891;49.350;19.386;2023-04-03T12:40:01;4.20;99.90
21459;DHT22;10891;49.350;19.386;2023-04-03T12:42:44;3.10;99.90
21459;DHT22;10891;49.350;19.386;2023-04-03T12:45:19;3.10;99.90
21459;DHT22;10891;49.350;19.386;2023-04-03T12:47:49;3.60;99.90
21459;DHT22;10891;49.350;19.386;2023-04-03T12:50:21;3.80;99.90
21459;DHT22;10891;49.350;19.386;2023-04-03T12:52:54;4.00;99.90
21459;DHT22;10891;49.350;19.386;2023-04-03T12:55:23;3.50;99.90
21459;DHT22;10891;49.350;19.386;2023-04-03T12:57:51;2.80;99.90
21459;DHT22;10891;49.350;19.386;2023-04-03T13:00:27;2.30;99.90
21459;DHT22;10891;49.350;19.386;2023-04-03T13:02:55;1.80;99.90
21459;DHT22;10891;49.350;19.386;2023-04-03T13:05:23;1.60;99.90
21459;DHT22;10891;49.350;19.386;2023-04-03T13:07:53;1.40;99.90
21459;DHT22;10891;49.350;19.386;2023-04-03T13:10:22;1.70;99.90
21459;DHT22;10891;49.350;19.386;2023-04-03T13:12:52;1.30;99.90
21459;DHT22;10891;49.350;19.386;2023-04-03T13:15:28;1.20;99.90
21459;DHT22;10891;49.350;19.386;2023-04-03T13:17:58;0.70;99.90
21459;DHT22;10891;49.350;19.386;2023-04-03T13:20:27;0.70;99.90
21459;DHT22;10891;49.350;19.386;2023-04-03T13:22:57;1.10;99.90
21459;DHT22;10891;49.350;19.386;2023-04-03T13:25:28;0.90;99.90
21459;DHT22;10891;49.350;19.386;2023-04-03T13:27:58;1.10;99.90
21459;DHT22;10891;49.350;19.386;2023-04-03T13:30:29;1.00;99.90
21459;DHT22;10891;49.350;19.386;2023-04-03T13:32:59;0.80;99.90
21459;DHT22;10891;49.350;19.386;2023-04-03T13:35:38;1.00;99.90
21459;DHT22;10891;49.350;19.386;2023-04-03T13:38:23;1.10;99.90
21459;DHT22;10891;49.350;19.386;2023-04-03T13:40:53;1.10;99.90
21459;DHT22;10891;49.350;19.386;2023-04-03T13:43:23;1.50;99.90
21459;DHT22;10891;49.350;19.386;2023-04-03T13:46:00;1.60;99.90
21459;DHT22;10891;49.350;19.386;2023-04-03T13:48:37;1.30;99.90
21459;DHT22;10891;49.350;19.386;2023-04-03T13:51:06;1.30;99.90
21459;DHT22;10891;49.350;19.386;2023-04-03T13:53:45;1.10;99.90
21459;DHT22;10891;49.350;19.386;2023-04-03T13:56:19;0.70;99.90
21459;DHT22;10891;49.350;19.386;2023-04-03T13:59:21;0.40;99.90
21459;DHT22;10891;49.350;19.386;2023-04-03T14:01:55;0.40;99.90
21459;DHT22;10891;49.350;19.386;2023-04-03T14:04:46;0.30;99.90
21459;DHT22;10891;49.350;19.386;2023-04-03T14:07:15;0.10;99.90
21459;DHT22;10891;49.350;19.386;2023-04-03T14:09:45;-0.10;99.90
21459;DHT22;10891;49.350;19.386;2023-04-03T14:12:16;-0.30;99.90
21459;DHT22;10891;49.350;19.386;2023-04-03T14:14:44;-0.30;99.90
21459;DHT22;10891;49.350;19.386;2023-04-03T14:17:16;-0.10;99.90
21459;DHT22;10891;49.350;19.386;2023-04-03T14:19:44;0.00;99.90
21459;DHT22;10891;49.350;19.386;2023-04-03T14:22:15;0.30;99.90
21459;DHT22;10891;49.350;19.386;2023-04-03T14:24:43;0.90;99.90
21459;DHT22;10891;49.350;19.386;2023-04-03T14:27:15;0.90;99.90
21459;DHT22;10891;49.350;19.386;2023-04-03T14:29:43;0.30;99.90
21459;DHT22;10891;49.350;19.386;2023-04-03T14:32:12;0.10;99.90
21459;DHT22;10891;49.350;19.386;2023-04-03T14:34:45;-0.10;99.90
21459;DHT22;10891;49.350;19.386;2023-04-03T14:37:17;0.00;99.90
21459;DHT22;10891;49.350;19.386;2023-04-03T14:39:45;0.10;99.90
21459;DHT22;10891;49.350;19.386;2023-04-03T14:42:14;0.20;99.90
21459;DHT22;10891;49.350;19.386;2023-04-03T14:44:41;0.10;99.90
21459;DHT22;10891;49.350;19.386;2023-04-03T14:47:11;0.50;99.90
21459;DHT22;10891;49.350;19.386;2023-04-03T14:49:39;0.30;99.90
21459;DHT22;10891;49.350;19.386;2023-04-03T14:52:17;0.10;99.90
21459;DHT22;10891;49.350;19.386;2023-04-03T14:54:46;0.10;99.90
21459;DHT22;10891;49.350;19.386;2023-04-03T14:57:15;0.20;99.90
21459;DHT22;10891;49.350;19.386;2023-04-03T14:59:42;0.10;99.90
21459;DHT22;10891;49.350;19.386;2023-04-03T15:02:26;0.10;99.90
21459;DHT22;10891;49.350;19.386;2023-04-03T15:04:54;0.00;99.90
21459;DHT22;10891;49.350;19.386;2023-04-03T15:07:24;0.00;99.90
21459;DHT22;10891;49.350;19.386;2023-04-03T15:09:52;-0.10;99.90
21459;DHT22;10891;49.350;19.386;2023-04-03T15:12:21;-0.10;99.90
21459;DHT22;10891;49.350;19.386;2023-04-03T15:14:48;0.00;99.90
21459;DHT22;10891;49.350;19.386;2023-04-03T15:17:19;0.50;99.90
21459;DHT22;10891;49.350;19.386;2023-04-03T15:19:47;0.90;99.90
21459;DHT22;10891;49.350;19.386;2023-04-03T15:22:15;1.00;99.90
21459;DHT22;10891;49.350;19.386;2023-04-03T15:24:45;1.50;99.90
21459;DHT22;10891;49.350;19.386;2023-04-03T15:27:13;1.10;99.90
21459;DHT22;10891;49.350;19.386;2023-04-03T15:29:42;0.60;99.90
21459;DHT22;10891;49.350;19.386;2023-04-03T15:32:09;0.10;99.90
21459;DHT22;10891;49.350;19.386;2023-04-03T15:34:37;0.20;99.90
21459;DHT22;10891;49.350;19.386;2023-04-03T15:37:05;0.30;99.90
21459;DHT22;10891;49.350;19.386;2023-04-03T15:39:32;0.10;99.90
21459;DHT22;10891;49.350;19.386;2023-04-03T15:42:00;0.20;99.90
21459;DHT22;10891;49.350;19.386;2023-04-03T15:44:32;0.30;99.90
21459;DHT22;10891;49.350;19.386;2023-04-03T15:47:01;0.40;99.90
21459;DHT22;10891;49.350;19.386;2023-04-03T15:49:33;0.20;99.90
21459;DHT22;10891;49.350;19.386;2023-04-03T15:52:00;0.20;99.90
21459;DHT22;10891;49.350;19.386;2023-04-03T15:54:27;0.00;99.90
21459;DHT22;10891;49.350;19.386;2023-04-03T15:56:55;-0.20;99.90
21459;DHT22;10891;49.350;19.386;2023-04-03T15:59:23;-0.30;99.90
21459;DHT22;10891;49.350;19.386;2023-04-03T16:01:51;-0.40;99.90
21459;DHT22;10891;49.350;19.386;2023-04-03T16:04:19;-0.50;99.90
21459;DHT22;10891;49.350;19.386;2023-04-03T16:06:47;-0.70;99.90
21459;DHT22;10891;49.350;19.386;2023-04-03T16:09:14;-0.70;99.90
21459;DHT22;10891;49.350;19.386;2023-04-03T16:11:41;-0.60;99.90